sensor_id;sensor_type;location;lat;lon;timestamp;P1;durP1;ratioP1;P2;durP2;ratioP2
12110;SDS011;6119;52.372;8.990;2024-03-25T00:02:29;3.50;;;1.50;;
12110;SDS011;6119;52.372;8.990;2024-03-25T00:05:14;5.60;;;1.73;;
12110;SDS011;6119;52.372;8.990;2024-03-25T00:08:04;5.23;;;1.60;;
12110;SDS011;6119;52.372;8.990;2024-03-25T00:10:51;4.93;;;2.00;;
12110;SDS011;6119;52.372;8.990;2024-03-25T00:13:36;5.87;;;1.70;;
12110;SDS011;6119;52.372;8.990;2024-03-25T00:16:23;6.93;;;2.37;;
12110;SDS011;6119;52.372;8.990;2024-03-25T00:19:08;3.40;;;1.50;;
12110;SDS011;6119;52.372;8.990;2024-03-25T00:21:53;7.40;;;1.80;;
12110;SDS011;6119;52.372;8.990;2024-03-25T00:24:38;3.87;;;1.40;;
12110;SDS011;6119;52.372;8.990;2024-03-25T00:27:24;5.90;;;1.77;;
12110;SDS011;6119;52.372;8.990;2024-03-25T00:30:09;4.10;;;1.60;;
12110;SDS011;6119;52.372;8.990;2024-03-25T00:32:57;10.10;;;1.67;;
12110;SDS011;6119;52.372;8.990;2024-03-25T00:35:42;6.10;;;1.60;;
12110;SDS011;6119;52.372;8.990;2024-03-25T00:38:29;3.80;;;1.63;;
12110;SDS011;6119;52.372;8.990;2024-03-25T00:41:14;3.57;;;1.70;;
12110;SDS011;6119;52.372;8.990;2024-03-25T00:44:00;5.53;;;1.77;;
12110;SDS011;6119;52.372;8.990;2024-03-25T00:46:45;3.57;;;1.70;;
12110;SDS011;6119;52.372;8.990;2024-03-25T00:49:32;2.77;;;1.60;;
12110;SDS011;6119;52.372;8.990;2024-03-25T00:52:18;4.23;;;1.80;;
12110;SDS011;6119;52.372;8.990;2024-03-25T00:55:04;3.97;;;1.67;;
12110;SDS011;6119;52.372;8.990;2024-03-25T00:57:49;2.50;;;1.43;;
12110;SDS011;6119;52.372;8.990;2024-03-25T01:00:35;7.00;;;1.40;;
12110;SDS011;6119;52.372;8.990;2024-03-25T01:03:20;9.33;;;2.10;;
12110;SDS011;6119;52.372;8.990;2024-03-25T01:06:08;6.23;;;1.70;;
12110;SDS011;6119;52.372;8.990;2024-03-25T01:08:53;5.47;;;1.50;;
12110;SDS011;6119;52.372;8.990;2024-03-25T01:11:38;6.07;;;1.67;;
12110;SDS011;6119;52.372;8.990;2024-03-25T01:14:23;5.50;;;1.60;;
12110;SDS011;6119;52.372;8.990;2024-03-25T01:17:09;4.53;;;1.90;;
12110;SDS011;6119;52.372;8.990;2024-03-25T01:19:54;7.77;;;1.60;;
12110;SDS011;6119;52.372;8.990;2024-03-25T01:22:41;4.00;;;1.40;;
12110;SDS011;6119;52.372;8.990;2024-03-25T01:25:26;6.27;;;1.40;;
12110;SDS011;6119;52.372;8.990;2024-03-25T01:28:12;4.00;;;1.60;;
12110;SDS011;6119;52.372;8.990;2024-03-25T01:30:57;6.80;;;1.60;;
12110;SDS011;6119;52.372;8.990;2024-03-25T01:33:42;7.47;;;1.60;;
12110;SDS011;6119;52.372;8.990;2024-03-25T01:36:27;4.17;;;1.77;;
12110;SDS011;6119;52.372;8.990;2024-03-25T01:39:14;5.00;;;1.50;;
12110;SDS011;6119;52.372;8.990;2024-03-25T01:41:59;3.67;;;1.53;;
12110;SDS011;6119;52.372;8.990;2024-03-25T01:44:45;4.10;;;1.70;;
12110;SDS011;6119;52.372;8.990;2024-03-25T01:47:31;4.13;;;1.67;;
12110;SDS011;6119;52.372;8.990;2024-03-25T01:50:19;3.73;;;1.50;;
12110;SDS011;6119;52.372;8.990;2024-03-25T01:53:05;4.13;;;2.00;;
12110;SDS011;6119;52.372;8.990;2024-03-25T01:55:52;2.17;;;1.20;;
12110;SDS011;6119;52.372;8.990;2024-03-25T01:58:40;2.63;;;1.70;;
12110;SDS011;6119;52.372;8.990;2024-03-25T02:01:26;3.40;;;1.50;;
12110;SDS011;6119;52.372;8.990;2024-03-25T02:04:11;2.67;;;1.57;;
12110;SDS011;6119;52.372;8.990;2024-03-25T02:06:57;4.07;;;1.47;;
12110;SDS011;6119;52.372;8.990;2024-03-25T02:09:43;6.53;;;1.87;;
12110;SDS011;6119;52.372;8.990;2024-03-25T02:12:32;3.50;;;1.60;;
12110;SDS011;6119;52.372;8.990;2024-03-25T02:15:17;11.53;;;2.00;;
12110;SDS011;6119;52.372;8.990;2024-03-25T02:18:04;4.63;;;1.73;;
12110;SDS011;6119;52.372;8.990;2024-03-25T02:20:50;4.27;;;1.50;;
12110;SDS011;6119;52.372;8.990;2024-03-25T02:23:35;6.77;;;1.93;;
12110;SDS011;6119;52.372;8.990;2024-03-25T02:26:28;9.00;;;2.27;;
12110;SDS011;6119;52.372;8.990;2024-03-25T02:29:14;6.33;;;1.60;;
12110;SDS011;6119;52.372;8.990;2024-03-25T02:31:59;11.90;;;2.23;;
12110;SDS011;6119;52.372;8.990;2024-03-25T02:34:45;5.73;;;1.73;;
12110;SDS011;6119;52.372;8.990;2024-03-25T02:37:33;7.23;;;1.97;;
12110;SDS011;6119;52.372;8.990;2024-03-25T02:40:19;3.70;;;1.53;;
12110;SDS011;6119;52.372;8.990;2024-03-25T02:43:07;7.13;;;1.80;;
12110;SDS011;6119;52.372;8.990;2024-03-25T02:45:55;7.37;;;2.00;;
12110;SDS011;6119;52.372;8.990;2024-03-25T02:48:40;8.90;;;1.70;;
12110;SDS011;6119;52.372;8.990;2024-03-25T02:51:25;5.83;;;1.90;;
12110;SDS011;6119;52.372;8.990;2024-03-25T02:54:10;8.40;;;2.13;;
12110;SDS011;6119;52.372;8.990;2024-03-25T02:56:56;5.30;;;1.90;;
12110;SDS011;6119;52.372;8.990;2024-03-25T02:59:42;4.50;;;1.97;;
12110;SDS011;6119;52.372;8.990;2024-03-25T03:02:28;9.43;;;2.50;;
12110;SDS011;6119;52.372;8.990;2024-03-25T03:05:13;11.43;;;2.20;;
12110;SDS011;6119;52.372;8.990;2024-03-25T03:07:59;12.13;;;2.30;;
12110;SDS011;6119;52.372;8.990;2024-03-25T03:10:44;11.33;;;2.73;;
12110;SDS011;6119;52.372;8.990;2024-03-25T03:13:30;8.20;;;2.23;;
12110;SDS011;6119;52.372;8.990;2024-03-25T03:16:16;6.90;;;1.87;;
12110;SDS011;6119;52.372;8.990;2024-03-25T03:19:01;13.10;;;2.60;;
12110;SDS011;6119;52.372;8.990;2024-03-25T03:21:46;10.40;;;2.40;;
12110;SDS011;6119;52.372;8.990;2024-03-25T03:24:32;5.47;;;2.20;;
12110;SDS011;6119;52.372;8.990;2024-03-25T03:27:17;6.80;;;2.20;;
12110;SDS011;6119;52.372;8.990;2024-03-25T03:30:03;7.17;;;2.13;;
12110;SDS011;6119;52.372;8.990;2024-03-25T03:32:50;7.57;;;2.30;;
12110;SDS011;6119;52.372;8.990;2024-03-25T03:35:36;7.17;;;2.37;;
12110;SDS011;6119;52.372;8.990;2024-03-25T03:38:22;7.47;;;2.50;;
12110;SDS011;6119;52.372;8.990;2024-03-25T03:41:08;9.13;;;1.97;;
12110;SDS011;6119;52.372;8.990;2024-03-25T03:43:53;11.03;;;2.37;;
12110;SDS011;6119;52.372;8.990;2024-03-25T03:46:38;9.37;;;2.63;;
12110;SDS011;6119;52.372;8.990;2024-03-25T03:49:24;15.10;;;2.60;;
12110;SDS011;6119;52.372;8.990;2024-03-25T03:52:10;12.13;;;2.73;;
12110;SDS011;6119;52.372;8.990;2024-03-25T03:54:54;10.97;;;2.70;;
12110;SDS011;6119;52.372;8.990;2024-03-25T03:57:41;9.13;;;2.63;;
12110;SDS011;6119;52.372;8.990;2024-03-25T04:00:27;7.80;;;2.60;;
12110;SDS011;6119;52.372;8.990;2024-03-25T04:03:12;14.00;;;2.20;;
12110;SDS011;6119;52.372;8.990;2024-03-25T04:05:59;8.40;;;2.20;;
12110;SDS011;6119;52.372;8.990;2024-03-25T04:08:52;14.80;;;2.80;;
12110;SDS011;6119;52.372;8.990;2024-03-25T04:11:36;16.13;;;3.23;;
12110;SDS011;6119;52.372;8.990;2024-03-25T04:14:22;6.13;;;2.10;;
12110;SDS011;6119;52.372;8.990;2024-03-25T04:17:07;12.47;;;2.63;;
12110;SDS011;6119;52.372;8.990;2024-03-25T04:19:52;6.53;;;2.10;;
12110;SDS011;6119;52.372;8.990;2024-03-25T04:22:42;5.87;;;2.53;;
12110;SDS011;6119;52.372;8.990;2024-03-25T04:25:26;10.80;;;2.20;;
12110;SDS011;6119;52.372;8.990;2024-03-25T04:28:12;11.47;;;2.60;;
12110;SDS011;6119;52.372;8.990;2024-03-25T04:30:57;12.83;;;2.33;;
12110;SDS011;6119;52.372;8.990;2024-03-25T04:33:43;8.13;;;2.43;;
12110;SDS011;6119;52.372;8.990;2024-03-25T04:36:27;10.60;;;2.23;;
12110;SDS011;6119;52.372;8.990;2024-03-25T04:39:14;9.27;;;2.23;;
12110;SDS011;6119;52.372;8.990;2024-03-25T04:41:59;10.70;;;2.43;;
12110;SDS011;6119;52.372;8.990;2024-03-25T04:44:44;9.90;;;2.97;;
12110;SDS011;6119;52.372;8.990;2024-03-25T04:47:29;9.33;;;3.10;;
12110;SDS011;6119;52.372;8.990;2024-03-25T04:50:13;12.83;;;2.30;;
12110;SDS011;6119;52.372;8.990;2024-03-25T04:52:58;7.60;;;2.50;;
12110;SDS011;6119;52.372;8.990;2024-03-25T04:55:45;7.27;;;2.13;;
12110;SDS011;6119;52.372;8.990;2024-03-25T04:58:30;10.47;;;2.30;;
12110;SDS011;6119;52.372;8.990;2024-03-25T05:01:14;10.73;;;3.00;;
12110;SDS011;6119;52.372;8.990;2024-03-25T05:03:59;8.70;;;2.10;;
12110;SDS011;6119;52.372;8.990;2024-03-25T05:06:44;8.20;;;2.57;;
12110;SDS011;6119;52.372;8.990;2024-03-25T05:09:29;9.27;;;2.40;;
12110;SDS011;6119;52.372;8.990;2024-03-25T05:12:15;13.73;;;2.40;;
12110;SDS011;6119;52.372;8.990;2024-03-25T05:15:00;9.17;;;2.73;;
12110;SDS011;6119;52.372;8.990;2024-03-25T05:17:44;6.47;;;2.30;;
12110;SDS011;6119;52.372;8.990;2024-03-25T05:20:29;11.77;;;3.07;;
12110;SDS011;6119;52.372;8.990;2024-03-25T05:23:14;6.93;;;2.13;;
12110;SDS011;6119;52.372;8.990;2024-03-25T05:25:58;13.23;;;2.23;;
12110;SDS011;6119;52.372;8.990;2024-03-25T05:28:44;11.70;;;2.63;;
12110;SDS011;6119;52.372;8.990;2024-03-25T05:31:29;14.37;;;3.07;;
12110;SDS011;6119;52.372;8.990;2024-03-25T05:34:14;8.70;;;1.80;;
12110;SDS011;6119;52.372;8.990;2024-03-25T05:36:59;11.87;;;2.60;;
12110;SDS011;6119;52.372;8.990;2024-03-25T05:39:44;15.07;;;2.63;;
12110;SDS011;6119;52.372;8.990;2024-03-25T05:42:28;6.53;;;2.40;;
12110;SDS011;6119;52.372;8.990;2024-03-25T05:45:15;8.23;;;2.73;;
12110;SDS011;6119;52.372;8.990;2024-03-25T05:47:59;7.13;;;2.00;;
12110;SDS011;6119;52.372;8.990;2024-03-25T05:50:44;9.00;;;2.57;;
12110;SDS011;6119;52.372;8.990;2024-03-25T05:53:29;6.90;;;2.10;;
12110;SDS011;6119;52.372;8.990;2024-03-25T05:56:14;8.57;;;2.20;;
12110;SDS011;6119;52.372;8.990;2024-03-25T05:58:59;13.27;;;2.60;;
12110;SDS011;6119;52.372;8.990;2024-03-25T06:01:45;8.50;;;2.47;;
12110;SDS011;6119;52.372;8.990;2024-03-25T06:04:30;4.80;;;2.43;;
12110;SDS011;6119;52.372;8.990;2024-03-25T06:07:15;11.20;;;2.57;;
12110;SDS011;6119;52.372;8.990;2024-03-25T06:10:00;9.87;;;2.57;;
12110;SDS011;6119;52.372;8.990;2024-03-25T06:12:44;9.03;;;2.47;;
12110;SDS011;6119;52.372;8.990;2024-03-25T06:15:29;16.13;;;2.47;;
12110;SDS011;6119;52.372;8.990;2024-03-25T06:18:15;9.80;;;2.83;;
12110;SDS011;6119;52.372;8.990;2024-03-25T06:21:00;8.30;;;2.57;;
12110;SDS011;6119;52.372;8.990;2024-03-25T06:23:44;12.90;;;2.53;;
12110;SDS011;6119;52.372;8.990;2024-03-25T06:26:29;7.20;;;2.67;;
12110;SDS011;6119;52.372;8.990;2024-03-25T06:29:14;16.53;;;2.67;;
12110;SDS011;6119;52.372;8.990;2024-03-25T06:31:59;14.07;;;2.97;;
12110;SDS011;6119;52.372;8.990;2024-03-25T06:35:03;11.10;;;3.23;;
12110;SDS011;6119;52.372;8.990;2024-03-25T06:37:48;8.60;;;2.70;;
12110;SDS011;6119;52.372;8.990;2024-03-25T06:40:33;10.43;;;2.77;;
12110;SDS011;6119;52.372;8.990;2024-03-25T06:43:18;12.30;;;2.70;;
12110;SDS011;6119;52.372;8.990;2024-03-25T06:46:02;7.30;;;2.00;;
12110;SDS011;6119;52.372;8.990;2024-03-25T06:48:47;7.20;;;1.93;;
12110;SDS011;6119;52.372;8.990;2024-03-25T06:51:33;12.13;;;2.57;;
12110;SDS011;6119;52.372;8.990;2024-03-25T06:54:18;12.07;;;2.50;;
12110;SDS011;6119;52.372;8.990;2024-03-25T06:57:02;7.30;;;2.87;;
12110;SDS011;6119;52.372;8.990;2024-03-25T06:59:47;10.03;;;2.90;;
12110;SDS011;6119;52.372;8.990;2024-03-25T07:02:32;8.67;;;2.13;;
12110;SDS011;6119;52.372;8.990;2024-03-25T07:05:17;12.27;;;2.53;;
12110;SDS011;6119;52.372;8.990;2024-03-25T07:08:03;12.43;;;2.83;;
12110;SDS011;6119;52.372;8.990;2024-03-25T07:10:49;8.20;;;2.60;;
12110;SDS011;6119;52.372;8.990;2024-03-25T07:13:33;8.13;;;2.20;;
12110;SDS011;6119;52.372;8.990;2024-03-25T07:16:18;8.93;;;2.67;;
12110;SDS011;6119;52.372;8.990;2024-03-25T07:19:03;10.17;;;2.90;;
12110;SDS011;6119;52.372;8.990;2024-03-25T07:21:47;10.40;;;2.30;;
12110;SDS011;6119;52.372;8.990;2024-03-25T07:24:33;8.43;;;2.63;;
12110;SDS011;6119;52.372;8.990;2024-03-25T07:27:18;8.23;;;2.13;;
12110;SDS011;6119;52.372;8.990;2024-03-25T07:30:04;7.47;;;2.03;;
12110;SDS011;6119;52.372;8.990;2024-03-25T07:32:49;11.43;;;2.50;;
12110;SDS011;6119;52.372;8.990;2024-03-25T07:35:34;7.43;;;2.73;;
12110;SDS011;6119;52.372;8.990;2024-03-25T07:38:19;13.57;;;2.60;;
12110;SDS011;6119;52.372;8.990;2024-03-25T07:41:05;9.20;;;2.53;;
12110;SDS011;6119;52.372;8.990;2024-03-25T07:43:50;8.07;;;2.80;;
12110;SDS011;6119;52.372;8.990;2024-03-25T07:46:35;7.63;;;2.13;;
12110;SDS011;6119;52.372;8.990;2024-03-25T07:49:19;9.43;;;2.47;;
12110;SDS011;6119;52.372;8.990;2024-03-25T07:52:04;11.80;;;2.17;;
12110;SDS011;6119;52.372;8.990;2024-03-25T07:54:49;12.20;;;2.63;;
12110;SDS011;6119;52.372;8.990;2024-03-25T07:57:35;14.00;;;2.63;;
12110;SDS011;6119;52.372;8.990;2024-03-25T08:00:20;3.93;;;1.93;;
12110;SDS011;6119;52.372;8.990;2024-03-25T08:03:05;11.03;;;1.97;;
12110;SDS011;6119;52.372;8.990;2024-03-25T08:05:50;10.00;;;2.60;;
12110;SDS011;6119;52.372;8.990;2024-03-25T08:08:35;10.07;;;2.57;;
12110;SDS011;6119;52.372;8.990;2024-03-25T08:11:20;9.40;;;2.10;;
12110;SDS011;6119;52.372;8.990;2024-03-25T08:14:05;7.90;;;1.97;;
12110;SDS011;6119;52.372;8.990;2024-03-25T08:16:50;8.13;;;2.30;;
12110;SDS011;6119;52.372;8.990;2024-03-25T08:19:35;12.87;;;2.57;;
12110;SDS011;6119;52.372;8.990;2024-03-25T08:22:20;10.97;;;2.13;;
12110;SDS011;6119;52.372;8.990;2024-03-25T08:25:05;12.30;;;2.87;;
12110;SDS011;6119;52.372;8.990;2024-03-25T08:27:51;8.63;;;1.87;;
12110;SDS011;6119;52.372;8.990;2024-03-25T08:30:37;6.43;;;1.77;;
12110;SDS011;6119;52.372;8.990;2024-03-25T08:33:22;7.27;;;1.60;;
12110;SDS011;6119;52.372;8.990;2024-03-25T08:36:06;4.87;;;1.43;;
12110;SDS011;6119;52.372;8.990;2024-03-25T08:38:51;12.53;;;2.03;;
12110;SDS011;6119;52.372;8.990;2024-03-25T08:41:36;6.53;;;2.10;;
12110;SDS011;6119;52.372;8.990;2024-03-25T08:44:21;6.63;;;1.60;;
12110;SDS011;6119;52.372;8.990;2024-03-25T08:47:08;11.67;;;1.80;;
12110;SDS011;6119;52.372;8.990;2024-03-25T08:49:52;6.57;;;2.00;;
12110;SDS011;6119;52.372;8.990;2024-03-25T08:52:37;8.67;;;1.80;;
12110;SDS011;6119;52.372;8.990;2024-03-25T08:55:22;7.17;;;1.93;;
12110;SDS011;6119;52.372;8.990;2024-03-25T08:58:07;3.83;;;1.60;;
12110;SDS011;6119;52.372;8.990;2024-03-25T09:00:52;8.13;;;1.90;;
12110;SDS011;6119;52.372;8.990;2024-03-25T09:03:38;9.90;;;1.93;;
12110;SDS011;6119;52.372;8.990;2024-03-25T09:06:22;10.47;;;2.33;;
12110;SDS011;6119;52.372;8.990;2024-03-25T09:09:07;8.67;;;2.20;;
12110;SDS011;6119;52.372;8.990;2024-03-25T09:12:10;7.17;;;2.63;;
12110;SDS011;6119;52.372;8.990;2024-03-25T09:14:55;5.37;;;2.03;;
12110;SDS011;6119;52.372;8.990;2024-03-25T09:17:43;5.57;;;2.10;;
12110;SDS011;6119;52.372;8.990;2024-03-25T09:20:29;8.33;;;2.03;;
12110;SDS011;6119;52.372;8.990;2024-03-25T09:23:13;9.57;;;1.83;;
12110;SDS011;6119;52.372;8.990;2024-03-25T09:25:58;14.30;;;2.47;;
12110;SDS011;6119;52.372;8.990;2024-03-25T09:28:42;7.50;;;1.80;;
12110;SDS011;6119;52.372;8.990;2024-03-25T09:31:27;8.90;;;2.00;;
12110;SDS011;6119;52.372;8.990;2024-03-25T09:34:12;10.30;;;2.20;;
12110;SDS011;6119;52.372;8.990;2024-03-25T09:36:58;7.80;;;2.37;;
12110;SDS011;6119;52.372;8.990;2024-03-25T09:39:43;5.43;;;1.90;;
12110;SDS011;6119;52.372;8.990;2024-03-25T09:42:28;8.97;;;2.57;;
12110;SDS011;6119;52.372;8.990;2024-03-25T09:45:18;10.80;;;1.80;;
12110;SDS011;6119;52.372;8.990;2024-03-25T09:48:05;8.47;;;2.17;;
12110;SDS011;6119;52.372;8.990;2024-03-25T09:50:51;12.03;;;2.57;;
12110;SDS011;6119;52.372;8.990;2024-03-25T09:53:39;9.20;;;1.80;;
12110;SDS011;6119;52.372;8.990;2024-03-25T09:56:24;8.73;;;2.23;;
12110;SDS011;6119;52.372;8.990;2024-03-25T09:59:09;6.23;;;1.80;;
12110;SDS011;6119;52.372;8.990;2024-03-25T10:01:54;6.83;;;1.63;;
12110;SDS011;6119;52.372;8.990;2024-03-25T10:04:42;10.43;;;2.13;;
12110;SDS011;6119;52.372;8.990;2024-03-25T10:07:29;6.23;;;1.90;;
12110;SDS011;6119;52.372;8.990;2024-03-25T10:10:18;6.23;;;1.80;;
12110;SDS011;6119;52.372;8.990;2024-03-25T10:13:04;4.40;;;1.70;;
12110;SDS011;6119;52.372;8.990;2024-03-25T10:15:49;7.30;;;1.33;;
12110;SDS011;6119;52.372;8.990;2024-03-25T10:18:34;8.47;;;1.77;;
12110;SDS011;6119;52.372;8.990;2024-03-25T10:21:19;6.47;;;1.53;;
12110;SDS011;6119;52.372;8.990;2024-03-25T10:24:04;3.70;;;1.43;;
12110;SDS011;6119;52.372;8.990;2024-03-25T10:26:51;4.63;;;1.17;;
12110;SDS011;6119;52.372;8.990;2024-03-25T10:29:36;3.57;;;1.00;;
12110;SDS011;6119;52.372;8.990;2024-03-25T10:32:21;3.03;;;1.40;;
12110;SDS011;6119;52.372;8.990;2024-03-25T10:35:06;7.43;;;1.83;;
12110;SDS011;6119;52.372;8.990;2024-03-25T10:37:51;3.40;;;1.23;;
12110;SDS011;6119;52.372;8.990;2024-03-25T10:40:39;3.30;;;1.30;;
12110;SDS011;6119;52.372;8.990;2024-03-25T10:43:25;5.23;;;1.20;;
12110;SDS011;6119;52.372;8.990;2024-03-25T10:46:15;2.17;;;0.90;;
12110;SDS011;6119;52.372;8.990;2024-03-25T10:49:02;4.73;;;1.87;;
12110;SDS011;6119;52.372;8.990;2024-03-25T10:52:00;6.10;;;1.13;;
12110;SDS011;6119;52.372;8.990;2024-03-25T10:54:46;4.83;;;1.30;;
12110;SDS011;6119;52.372;8.990;2024-03-25T10:57:31;8.10;;;1.50;;
12110;SDS011;6119;52.372;8.990;2024-03-25T11:00:18;6.47;;;1.47;;
12110;SDS011;6119;52.372;8.990;2024-03-25T11:03:04;4.00;;;1.40;;
12110;SDS011;6119;52.372;8.990;2024-03-25T11:05:50;9.63;;;1.60;;
12110;SDS011;6119;52.372;8.990;2024-03-25T11:08:35;4.20;;;1.50;;
12110;SDS011;6119;52.372;8.990;2024-03-25T11:11:19;5.77;;;1.80;;
12110;SDS011;6119;52.372;8.990;2024-03-25T11:14:04;4.23;;;2.23;;
12110;SDS011;6119;52.372;8.990;2024-03-25T11:17:00;5.23;;;1.60;;
12110;SDS011;6119;52.372;8.990;2024-03-25T11:19:45;3.87;;;1.43;;
12110;SDS011;6119;52.372;8.990;2024-03-25T11:22:30;3.80;;;0.80;;
12110;SDS011;6119;52.372;8.990;2024-03-25T11:25:15;4.30;;;1.20;;
12110;SDS011;6119;52.372;8.990;2024-03-25T11:28:00;4.57;;;1.63;;
12110;SDS011;6119;52.372;8.990;2024-03-25T11:30:45;1.83;;;1.27;;
12110;SDS011;6119;52.372;8.990;2024-03-25T11:33:31;5.60;;;1.60;;
12110;SDS011;6119;52.372;8.990;2024-03-25T11:36:16;5.63;;;1.40;;
12110;SDS011;6119;52.372;8.990;2024-03-25T11:39:02;4.00;;;1.40;;
12110;SDS011;6119;52.372;8.990;2024-03-25T11:41:48;3.70;;;1.27;;
12110;SDS011;6119;52.372;8.990;2024-03-25T11:44:34;4.60;;;2.17;;
12110;SDS011;6119;52.372;8.990;2024-03-25T11:47:20;3.03;;;0.93;;
12110;SDS011;6119;52.372;8.990;2024-03-25T11:50:08;12.97;;;5.67;;
12110;SDS011;6119;52.372;8.990;2024-03-25T11:52:55;3.63;;;1.20;;
12110;SDS011;6119;52.372;8.990;2024-03-25T11:55:40;4.17;;;1.20;;
12110;SDS011;6119;52.372;8.990;2024-03-25T11:58:25;4.93;;;1.00;;
12110;SDS011;6119;52.372;8.990;2024-03-25T12:01:10;5.57;;;1.50;;
12110;SDS011;6119;52.372;8.990;2024-03-25T12:03:54;3.77;;;1.50;;
12110;SDS011;6119;52.372;8.990;2024-03-25T12:06:40;2.13;;;0.90;;
12110;SDS011;6119;52.372;8.990;2024-03-25T12:09:25;4.67;;;1.30;;
12110;SDS011;6119;52.372;8.990;2024-03-25T12:12:28;2.33;;;0.90;;
12110;SDS011;6119;52.372;8.990;2024-03-25T12:15:13;5.03;;;1.43;;
12110;SDS011;6119;52.372;8.990;2024-03-25T12:17:58;5.93;;;1.27;;
12110;SDS011;6119;52.372;8.990;2024-03-25T12:20:44;6.27;;;1.30;;
12110;SDS011;6119;52.372;8.990;2024-03-25T12:23:31;4.73;;;1.30;;
12110;SDS011;6119;52.372;8.990;2024-03-25T12:26:17;2.53;;;1.10;;
12110;SDS011;6119;52.372;8.990;2024-03-25T12:29:01;3.77;;;1.77;;
12110;SDS011;6119;52.372;8.990;2024-03-25T12:31:53;4.77;;;1.37;;
12110;SDS011;6119;52.372;8.990;2024-03-25T12:34:38;5.90;;;1.37;;
12110;SDS011;6119;52.372;8.990;2024-03-25T12:37:23;7.00;;;1.63;;
12110;SDS011;6119;52.372;8.990;2024-03-25T12:40:11;4.27;;;1.80;;
12110;SDS011;6119;52.372;8.990;2024-03-25T12:42:57;4.33;;;1.03;;
12110;SDS011;6119;52.372;8.990;2024-03-25T12:45:41;3.90;;;1.13;;
12110;SDS011;6119;52.372;8.990;2024-03-25T12:48:27;7.93;;;1.43;;
12110;SDS011;6119;52.372;8.990;2024-03-25T12:51:12;4.33;;;1.13;;
12110;SDS011;6119;52.372;8.990;2024-03-25T12:53:57;3.53;;;1.40;;
12110;SDS011;6119;52.372;8.990;2024-03-25T12:56:43;6.23;;;1.43;;
12110;SDS011;6119;52.372;8.990;2024-03-25T12:59:28;5.83;;;1.30;;
12110;SDS011;6119;52.372;8.990;2024-03-25T13:02:13;2.53;;;1.33;;
12110;SDS011;6119;52.372;8.990;2024-03-25T13:04:58;5.53;;;1.27;;
12110;SDS011;6119;52.372;8.990;2024-03-25T13:07:43;3.97;;;1.50;;
12110;SDS011;6119;52.372;8.990;2024-03-25T13:10:28;3.70;;;1.40;;
12110;SDS011;6119;52.372;8.990;2024-03-25T13:13:15;2.77;;;1.10;;
12110;SDS011;6119;52.372;8.990;2024-03-25T13:16:00;3.67;;;1.30;;
12110;SDS011;6119;52.372;8.990;2024-03-25T13:18:45;7.53;;;1.60;;
12110;SDS011;6119;52.372;8.990;2024-03-25T13:21:30;4.73;;;1.20;;
12110;SDS011;6119;52.372;8.990;2024-03-25T13:24:15;3.60;;;1.13;;
12110;SDS011;6119;52.372;8.990;2024-03-25T13:26:59;3.93;;;1.40;;
12110;SDS011;6119;52.372;8.990;2024-03-25T13:29:46;1.77;;;1.00;;
12110;SDS011;6119;52.372;8.990;2024-03-25T13:32:31;4.43;;;1.30;;
12110;SDS011;6119;52.372;8.990;2024-03-25T13:35:16;3.13;;;1.27;;
12110;SDS011;6119;52.372;8.990;2024-03-25T13:38:01;4.43;;;1.60;;
12110;SDS011;6119;52.372;8.990;2024-03-25T13:40:45;5.63;;;1.47;;
12110;SDS011;6119;52.372;8.990;2024-03-25T13:43:31;5.43;;;1.90;;
12110;SDS011;6119;52.372;8.990;2024-03-25T13:46:17;4.87;;;1.60;;
12110;SDS011;6119;52.372;8.990;2024-03-25T13:49:01;2.83;;;1.30;;
12110;SDS011;6119;52.372;8.990;2024-03-25T13:51:46;3.40;;;1.37;;
12110;SDS011;6119;52.372;8.990;2024-03-25T13:54:31;3.13;;;1.77;;
12110;SDS011;6119;52.372;8.990;2024-03-25T13:57:15;6.60;;;1.60;;
12110;SDS011;6119;52.372;8.990;2024-03-25T14:00:01;5.43;;;1.63;;
12110;SDS011;6119;52.372;8.990;2024-03-25T14:02:47;2.17;;;1.60;;
12110;SDS011;6119;52.372;8.990;2024-03-25T14:05:32;4.73;;;1.60;;
12110;SDS011;6119;52.372;8.990;2024-03-25T14:08:17;3.37;;;1.27;;
12110;SDS011;6119;52.372;8.990;2024-03-25T14:11:02;4.97;;;1.37;;
12110;SDS011;6119;52.372;8.990;2024-03-25T14:13:47;2.90;;;1.27;;
12110;SDS011;6119;52.372;8.990;2024-03-25T14:16:31;4.13;;;1.43;;
12110;SDS011;6119;52.372;8.990;2024-03-25T14:19:17;9.53;;;1.67;;
12110;SDS011;6119;52.372;8.990;2024-03-25T14:22:02;4.17;;;1.50;;
12110;SDS011;6119;52.372;8.990;2024-03-25T14:24:47;5.80;;;1.30;;
12110;SDS011;6119;52.372;8.990;2024-03-25T14:27:32;4.27;;;1.17;;
12110;SDS011;6119;52.372;8.990;2024-03-25T14:30:16;5.13;;;1.30;;
12110;SDS011;6119;52.372;8.990;2024-03-25T14:33:01;5.77;;;1.40;;
12110;SDS011;6119;52.372;8.990;2024-03-25T14:35:47;4.60;;;1.57;;
12110;SDS011;6119;52.372;8.990;2024-03-25T14:38:33;4.03;;;1.17;;
12110;SDS011;6119;52.372;8.990;2024-03-25T14:41:18;6.70;;;1.77;;
12110;SDS011;6119;52.372;8.990;2024-03-25T14:44:04;5.20;;;1.50;;
12110;SDS011;6119;52.372;8.990;2024-03-25T14:46:49;4.70;;;1.37;;
12110;SDS011;6119;52.372;8.990;2024-03-25T14:49:34;3.63;;;1.30;;
12110;SDS011;6119;52.372;8.990;2024-03-25T14:52:20;1.70;;;0.83;;
12110;SDS011;6119;52.372;8.990;2024-03-25T14:55:05;4.93;;;1.20;;
12110;SDS011;6119;52.372;8.990;2024-03-25T14:57:50;4.67;;;1.20;;
12110;SDS011;6119;52.372;8.990;2024-03-25T15:00:35;5.27;;;1.10;;
12110;SDS011;6119;52.372;8.990;2024-03-25T15:03:20;5.20;;;1.07;;
12110;SDS011;6119;52.372;8.990;2024-03-25T15:06:04;4.67;;;1.30;;
12110;SDS011;6119;52.372;8.990;2024-03-25T15:08:51;3.90;;;1.33;;
12110;SDS011;6119;52.372;8.990;2024-03-25T15:11:36;5.37;;;1.20;;
12110;SDS011;6119;52.372;8.990;2024-03-25T15:14:20;5.43;;;1.20;;
12110;SDS011;6119;52.372;8.990;2024-03-25T15:17:05;2.80;;;1.23;;
12110;SDS011;6119;52.372;8.990;2024-03-25T15:19:50;5.00;;;1.47;;
12110;SDS011;6119;52.372;8.990;2024-03-25T15:22:35;3.00;;;1.20;;
12110;SDS011;6119;52.372;8.990;2024-03-25T15:25:21;4.03;;;1.40;;
12110;SDS011;6119;52.372;8.990;2024-03-25T15:28:06;4.07;;;1.23;;
12110;SDS011;6119;52.372;8.990;2024-03-25T15:30:51;5.70;;;1.67;;
12110;SDS011;6119;52.372;8.990;2024-03-25T15:33:36;4.23;;;1.23;;
12110;SDS011;6119;52.372;8.990;2024-03-25T15:36:20;2.00;;;1.33;;
12110;SDS011;6119;52.372;8.990;2024-03-25T15:39:05;2.57;;;1.30;;
12110;SDS011;6119;52.372;8.990;2024-03-25T15:41:51;4.10;;;1.57;;
12110;SDS011;6119;52.372;8.990;2024-03-25T15:44:36;2.80;;;1.10;;
12110;SDS011;6119;52.372;8.990;2024-03-25T15:47:21;3.93;;;1.37;;
12110;SDS011;6119;52.372;8.990;2024-03-25T15:50:06;5.70;;;1.40;;
12110;SDS011;6119;52.372;8.990;2024-03-25T15:52:51;3.03;;;1.20;;
12110;SDS011;6119;52.372;8.990;2024-03-25T15:55:36;4.03;;;1.30;;
12110;SDS011;6119;52.372;8.990;2024-03-25T15:58:22;6.03;;;1.57;;
12110;SDS011;6119;52.372;8.990;2024-03-25T16:01:07;6.07;;;1.17;;
12110;SDS011;6119;52.372;8.990;2024-03-25T16:03:52;3.83;;;1.40;;
12110;SDS011;6119;52.372;8.990;2024-03-25T16:06:37;5.63;;;1.47;;
12110;SDS011;6119;52.372;8.990;2024-03-25T16:09:21;4.90;;;1.83;;
12110;SDS011;6119;52.372;8.990;2024-03-25T16:12:06;2.47;;;1.30;;
12110;SDS011;6119;52.372;8.990;2024-03-25T16:14:52;3.13;;;0.90;;
12110;SDS011;6119;52.372;8.990;2024-03-25T16:17:37;1.70;;;1.20;;
12110;SDS011;6119;52.372;8.990;2024-03-25T16:20:22;2.13;;;1.10;;
12110;SDS011;6119;52.372;8.990;2024-03-25T16:23:07;4.47;;;1.40;;
12110;SDS011;6119;52.372;8.990;2024-03-25T16:25:52;4.27;;;1.20;;
12110;SDS011;6119;52.372;8.990;2024-03-25T16:28:36;2.80;;;1.20;;
12110;SDS011;6119;52.372;8.990;2024-03-25T16:31:23;4.00;;;1.10;;
12110;SDS011;6119;52.372;8.990;2024-03-25T16:34:07;4.50;;;1.30;;
12110;SDS011;6119;52.372;8.990;2024-03-25T16:36:52;2.60;;;1.20;;
12110;SDS011;6119;52.372;8.990;2024-03-25T16:39:37;2.77;;;1.30;;
12110;SDS011;6119;52.372;8.990;2024-03-25T16:42:22;5.83;;;1.40;;
12110;SDS011;6119;52.372;8.990;2024-03-25T16:45:07;5.53;;;1.63;;
12110;SDS011;6119;52.372;8.990;2024-03-25T16:47:54;3.77;;;1.40;;
12110;SDS011;6119;52.372;8.990;2024-03-25T16:50:39;4.30;;;1.33;;